createdAt,value
2023-08-05T00:00:58.828Z,93690.03
2023-08-05T00:03:25.406Z,93699.28
2023-08-05T00:05:52.009Z,93698.50
2023-08-05T00:08:25.487Z,93697.03
2023-08-05T00:10:51.985Z,93700.72
2023-08-05T00:13:18.384Z,93707.56
2023-08-05T00:15:44.816Z,93710.28
2023-08-05T00:18:11.265Z,93702.97
2023-08-05T00:20:38.843Z,93688.09
2023-08-05T00:23:05.193Z,93698.59
2023-08-05T00:25:31.608Z,93702.84
2023-08-05T00:27:58.036Z,93694.53
2023-08-05T00:30:31.439Z,93698.75
2023-08-05T00:32:57.852Z,93703.69
2023-08-05T00:35:24.282Z,93694.06
2023-08-05T00:37:50.742Z,93697.38
2023-08-05T00:40:17.078Z,93699.56
2023-08-05T00:42:43.550Z,93702.84
2023-08-05T00:45:10.119Z,93701.50
2023-08-05T00:47:36.538Z,93702.38
2023-08-05T00:50:03.024Z,93694.34
2023-08-05T00:52:29.408Z,93697.38
2023-08-05T00:54:55.891Z,93693.06
2023-08-05T00:57:25.288Z,93692.44
2023-08-05T00:59:51.632Z,93682.00
2023-08-05T01:02:18.033Z,93675.34
2023-08-05T01:04:44.432Z,93670.00
2023-08-05T01:07:11.510Z,93663.31
2023-08-05T01:09:37.907Z,93663.59
2023-08-05T01:12:04.432Z,93659.16
2023-08-05T01:14:32.694Z,93664.44
2023-08-05T01:16:59.247Z,93653.13
2023-08-05T01:19:27.710Z,93648.69
2023-08-05T01:22:03.351Z,93651.91
2023-08-05T01:24:56.043Z,93651.38
2023-08-05T01:27:22.913Z,93647.00
2023-08-05T01:29:49.308Z,93641.13
2023-08-05T01:32:16.739Z,93631.44
2023-08-05T01:34:43.411Z,93627.22
2023-08-05T01:37:09.853Z,93626.53
2023-08-05T01:39:36.213Z,93615.31
2023-08-05T01:42:14.792Z,93628.13
2023-08-05T01:44:41.163Z,93631.78
2023-08-05T01:47:07.638Z,93631.97
2023-08-05T01:49:34.167Z,93623.81
2023-08-05T01:52:00.563Z,93628.59
2023-08-05T01:54:26.919Z,93615.22
2023-08-05T01:57:02.671Z,93619.94
2023-08-05T01:59:29.046Z,93613.06
2023-08-05T02:01:55.458Z,93608.03
2023-08-05T02:04:21.847Z,93589.97
2023-08-05T02:06:48.661Z,93586.03
2023-08-05T02:09:15.620Z,93580.13
2023-08-05T02:11:42.000Z,93577.28
2023-08-05T02:14:08.338Z,93596.31
2023-08-05T02:16:35.362Z,93626.19
2023-08-05T02:19:02.054Z,93637.06
2023-08-05T02:21:28.403Z,93646.06
2023-08-05T02:23:54.851Z,93643.56
2023-08-05T02:26:21.268Z,93626.91
2023-08-05T02:28:47.698Z,93619.81
2023-08-05T02:31:16.985Z,93611.47
2023-08-05T02:33:43.748Z,93615.94
2023-08-05T02:36:11.266Z,93627.53
2023-08-05T02:38:37.661Z,93631.94
2023-08-05T02:41:08.329Z,93638.31
2023-08-05T02:43:34.757Z,93645.06
2023-08-05T02:46:01.271Z,93651.31
2023-08-05T02:48:27.642Z,93646.06
2023-08-05T02:50:54.893Z,93641.06
2023-08-05T02:53:21.456Z,93640.34
2023-08-05T02:55:47.866Z,93636.25
2023-08-05T02:58:19.129Z,93642.75
2023-08-05T03:00:46.436Z,93641.94
2023-08-05T03:03:12.790Z,93640.53
2023-08-05T03:05:39.359Z,93639.81
2023-08-05T03:08:05.857Z,93648.63
2023-08-05T03:10:32.210Z,93640.09
2023-08-05T03:12:58.548Z,93642.25
2023-08-05T03:15:27.856Z,93649.56
2023-08-05T03:17:54.224Z,93653.47
2023-08-05T03:20:27.926Z,93651.75
2023-08-05T03:22:54.514Z,93660.06
2023-08-05T03:25:24.679Z,93650.72
2023-08-05T03:27:51.085Z,93657.25
2023-08-05T03:30:18.132Z,93663.66
2023-08-05T03:32:44.858Z,93665.88
2023-08-05T03:35:18.126Z,93659.31
2023-08-05T03:37:45.357Z,93665.44
2023-08-05T03:40:12.339Z,93671.59
2023-08-05T03:42:38.789Z,93672.06
2023-08-05T03:45:05.595Z,93665.28
2023-08-05T03:47:32.928Z,93664.56
2023-08-05T03:49:59.334Z,93656.09
2023-08-05T03:52:27.587Z,93646.94
2023-08-05T03:54:54.346Z,93651.59
2023-08-05T03:57:20.791Z,93659.31
2023-08-05T03:59:49.112Z,93656.81
2023-08-05T04:02:15.983Z,93672.56
2023-08-05T04:04:45.385Z,93670.44
2023-08-05T04:07:11.790Z,93676.03
2023-08-05T04:09:38.661Z,93683.91
2023-08-05T04:12:06.583Z,93681.28
2023-08-05T04:14:38.678Z,93682.19
2023-08-05T04:17:05.344Z,93669.38
2023-08-05T04:19:33.950Z,93671.94
2023-08-05T04:22:02.052Z,93675.34
2023-08-05T04:24:29.595Z,93677.47
2023-08-05T04:26:55.961Z,93684.50
2023-08-05T04:29:23.983Z,93681.91
2023-08-05T04:31:50.664Z,93684.66
2023-08-05T04:34:17.053Z,93677.09
2023-08-05T04:36:48.413Z,93676.09
2023-08-05T04:39:15.034Z,93675.78
2023-08-05T04:41:41.740Z,93679.16
2023-08-05T04:44:08.122Z,93672.38
2023-08-05T04:46:34.505Z,93671.25
2023-08-05T04:49:00.869Z,93666.59
2023-08-05T04:51:27.218Z,93668.91
2023-08-05T04:53:53.572Z,93659.31
2023-08-05T04:56:35.980Z,93658.94
2023-08-05T04:59:03.020Z,93662.38
2023-08-05T05:01:29.533Z,93668.84
2023-08-05T05:03:57.520Z,93674.16
2023-08-05T05:06:25.016Z,93676.03
2023-08-05T05:08:51.373Z,93683.81
2023-08-05T05:11:17.791Z,93673.91
2023-08-05T05:13:44.994Z,93668.22
2023-08-05T05:16:12.134Z,93674.16
2023-08-05T05:18:38.532Z,93671.25
2023-08-05T05:21:05.063Z,93679.06
2023-08-05T05:23:31.422Z,93681.34
2023-08-05T05:25:58.239Z,93671.78
2023-08-05T05:28:24.570Z,93671.81
2023-08-05T05:30:50.958Z,93675.59
2023-08-05T05:33:17.343Z,93609.81
2023-08-05T05:35:43.758Z,93671.84
2023-08-05T05:38:21.536Z,93673.59
2023-08-05T05:40:47.969Z,93675.06
2023-08-05T05:43:14.338Z,93676.53
2023-08-05T05:45:45.696Z,93678.28
2023-08-05T05:48:17.497Z,93679.31
2023-08-05T05:50:43.873Z,93686.31
2023-08-05T05:53:14.541Z,93616.53
2023-08-05T05:55:46.197Z,93701.19
2023-08-05T05:58:13.631Z,93700.91
2023-08-05T06:00:40.327Z,93694.63
2023-08-05T06:03:07.130Z,93699.44
2023-08-05T06:05:33.712Z,93702.66
2023-08-05T06:08:01.158Z,93709.38
2023-08-05T06:10:27.511Z,93712.13
2023-08-05T06:12:53.917Z,93710.81
2023-08-05T06:15:20.249Z,93707.41
2023-08-05T06:17:47.339Z,93709.19
2023-08-05T06:20:13.843Z,93712.44
2023-08-05T06:22:40.217Z,93714.91
2023-08-05T06:25:06.729Z,93719.00
2023-08-05T06:27:33.118Z,93715.69
2023-08-05T06:29:59.634Z,93713.75
2023-08-05T06:32:26.085Z,93719.28
2023-08-05T06:34:52.478Z,93717.66
2023-08-05T06:37:18.904Z,93712.13
2023-08-05T06:39:49.430Z,93707.03
2023-08-05T06:42:15.829Z,93714.75
2023-08-05T06:44:44.635Z,93706.41
2023-08-05T06:47:11.209Z,93712.00
2023-08-05T06:49:38.669Z,93711.84
2023-08-05T06:52:05.779Z,93702.59
2023-08-05T06:54:34.180Z,93705.06
2023-08-05T06:57:00.567Z,93710.22
2023-08-05T06:59:28.258Z,93709.06
2023-08-05T07:01:55.941Z,93708.28
2023-08-05T07:04:22.333Z,93710.59
2023-08-05T07:06:48.686Z,93710.41
2023-08-05T07:09:15.072Z,93706.47
2023-08-05T07:11:41.468Z,93704.16
2023-08-05T07:14:07.886Z,93705.78
2023-08-05T07:16:34.260Z,93714.66
2023-08-05T07:19:00.719Z,93715.59
2023-08-05T07:21:27.128Z,93713.53
2023-08-05T07:23:53.534Z,93718.44
2023-08-05T07:26:19.957Z,93718.00
2023-08-05T07:28:46.461Z,93722.16
2023-08-05T07:31:17.773Z,93729.16
2023-08-05T07:33:48.147Z,93730.34
2023-08-05T07:36:18.477Z,93726.97
2023-08-05T07:38:46.384Z,93732.94
2023-08-05T07:41:18.538Z,93730.16
2023-08-05T07:43:45.050Z,93734.28
2023-08-05T07:46:15.085Z,93735.25
2023-08-05T07:48:41.861Z,93731.78
2023-08-05T07:51:08.311Z,93727.41
2023-08-05T07:53:36.683Z,93720.53
2023-08-05T07:56:13.267Z,93725.94
2023-08-05T07:58:49.142Z,93722.69
2023-08-05T08:01:20.991Z,93722.16
2023-08-05T08:03:48.992Z,93728.56
2023-08-05T08:06:27.644Z,93730.97
2023-08-05T08:08:54.024Z,93732.66
2023-08-05T08:11:20.641Z,93729.56
2023-08-05T08:13:46.989Z,93737.16
2023-08-05T08:16:17.292Z,93733.09
2023-08-05T08:18:45.862Z,93736.31
2023-08-05T08:21:15.312Z,93743.97
2023-08-05T08:23:41.750Z,93736.06
2023-08-05T08:26:08.109Z,93741.38
2023-08-05T08:28:39.443Z,93737.56
2023-08-05T08:31:06.939Z,93732.31
2023-08-05T08:33:41.500Z,93725.03
2023-08-05T08:36:08.093Z,93714.97
2023-08-05T08:38:44.436Z,93706.69
2023-08-05T08:41:11.893Z,93706.38
2023-08-05T08:43:41.220Z,93700.00
2023-08-05T08:46:25.800Z,93703.19
2023-08-05T08:48:58.062Z,93703.91
2023-08-05T08:51:24.480Z,93702.53
2023-08-05T08:53:52.891Z,93695.09
2023-08-05T08:56:20.288Z,93696.03
2023-08-05T08:58:48.692Z,93703.41
2023-08-05T09:01:17.557Z,93699.88
2023-08-05T09:03:44.983Z,93701.13
2023-08-05T09:06:22.959Z,93705.44
2023-08-05T09:08:59.422Z,93706.03
2023-08-05T09:11:30.956Z,93710.03
2023-08-05T09:14:14.996Z,93707.88
2023-08-05T09:17:19.524Z,93690.19
2023-08-05T09:19:46.928Z,93723.81
2023-08-05T09:22:20.580Z,93715.03
2023-08-05T09:24:47.942Z,93710.53
2023-08-05T09:27:14.315Z,93712.00
2023-08-05T09:29:41.817Z,93709.38
2023-08-05T09:32:08.664Z,93712.13
2023-08-05T09:34:38.315Z,93723.34
2023-08-05T09:37:08.156Z,93710.97
2023-08-05T09:39:52.860Z,93708.13
2023-08-05T09:42:21.363Z,93700.75
2023-08-05T09:44:55.379Z,93709.13
2023-08-05T09:47:36.615Z,93709.50
2023-08-05T09:50:09.122Z,93705.81
2023-08-05T09:52:36.873Z,93698.34
2023-08-05T09:55:27.944Z,93691.22
2023-08-05T09:57:55.562Z,93697.63
2023-08-05T10:00:29.275Z,93689.75
2023-08-05T10:02:55.986Z,93684.41
2023-08-05T10:05:40.446Z,93686.34
2023-08-05T10:08:09.178Z,93680.06
2023-08-05T10:10:36.945Z,93684.84
2023-08-05T10:13:09.719Z,93682.13
2023-08-05T10:15:41.908Z,93693.03
2023-08-05T10:18:11.752Z,93683.31
2023-08-05T10:20:38.829Z,93678.34
2023-08-05T10:23:11.558Z,93677.75
2023-08-05T10:25:44.512Z,93668.53
2023-08-05T10:28:29.746Z,93675.25
2023-08-05T10:31:29.832Z,93672.56
2023-08-05T10:34:08.816Z,93668.41
2023-08-05T10:36:45.800Z,93662.66
2023-08-05T10:39:32.245Z,93660.56
2023-08-05T10:41:58.591Z,93648.22
2023-08-05T10:44:36.878Z,93649.44
2023-08-05T10:47:05.810Z,93644.03
2023-08-05T10:49:32.231Z,93639.72
2023-08-05T10:51:59.616Z,93644.03
2023-08-05T10:54:25.965Z,93635.44
2023-08-05T10:56:58.555Z,93634.66
2023-08-05T10:59:52.000Z,93633.59
2023-08-05T11:02:24.628Z,93634.66
2023-08-05T11:04:51.985Z,93645.94
2023-08-05T11:07:18.850Z,93632.72
2023-08-05T11:09:46.884Z,93626.69
2023-08-05T11:12:13.510Z,93629.66
2023-08-05T11:14:39.926Z,93630.03
2023-08-05T11:17:09.560Z,93623.06
2023-08-05T11:20:05.226Z,93625.47
2023-08-05T11:22:34.053Z,93618.34
2023-08-05T11:25:02.615Z,93616.56
2023-08-05T11:27:32.735Z,93615.25
2023-08-05T11:30:03.677Z,93608.59
2023-08-05T11:32:49.095Z,93604.97
2023-08-05T11:35:15.559Z,93610.84
2023-08-05T11:37:46.099Z,93613.13
2023-08-05T11:40:15.683Z,93607.06
2023-08-05T11:42:42.180Z,93602.13
2023-08-05T11:45:14.247Z,93599.41
2023-08-05T11:47:43.231Z,93587.75
2023-08-05T11:50:15.464Z,93594.72
2023-08-05T11:52:41.927Z,93591.53
2023-08-05T11:55:09.004Z,93586.66
2023-08-05T11:57:35.450Z,93585.16
2023-08-05T12:00:05.989Z,93581.81
2023-08-05T12:02:34.269Z,93575.66
2023-08-05T12:05:04.506Z,93569.09
2023-08-05T12:07:32.597Z,93572.13
2023-08-05T12:10:09.791Z,93567.53
2023-08-05T12:12:50.441Z,93573.47
2023-08-05T12:15:29.315Z,93561.22
2023-08-05T12:18:08.513Z,93555.78
2023-08-05T12:20:36.815Z,93547.28
2023-08-05T12:23:09.124Z,93548.81
2023-08-05T12:25:46.663Z,93553.91
2023-08-05T12:28:13.048Z,93543.09
2023-08-05T12:30:39.521Z,93538.16
2023-08-05T12:33:08.651Z,93526.69
2023-08-05T12:35:36.763Z,93526.28
2023-08-05T12:38:06.236Z,93521.56
2023-08-05T12:40:35.861Z,93530.56
2023-08-05T12:43:13.570Z,93528.31
2023-08-05T12:45:41.146Z,93526.16
2023-08-05T12:48:08.550Z,93518.50
2023-08-05T12:50:35.937Z,93510.63
2023-08-05T12:53:04.435Z,93517.25
2023-08-05T12:55:30.835Z,93518.91
2023-08-05T12:57:58.279Z,93525.28
2023-08-05T13:00:36.707Z,93527.88
2023-08-05T13:03:08.386Z,93531.47
2023-08-05T13:05:35.996Z,93542.81
2023-08-05T13:08:09.486Z,93538.03
2023-08-05T13:10:39.094Z,93545.84
2023-08-05T13:13:07.607Z,93549.91
2023-08-05T13:15:36.033Z,93552.00
2023-08-05T13:18:07.568Z,93552.06
2023-08-05T13:20:36.056Z,93539.53
2023-08-05T13:23:03.494Z,93543.03
2023-08-05T13:25:36.904Z,93540.22
2023-08-05T13:28:03.389Z,93539.84
2023-08-05T13:30:43.933Z,93532.56
2023-08-05T13:33:17.658Z,93540.91
2023-08-05T13:35:47.366Z,93535.47
2023-08-05T13:38:22.967Z,93526.63
2023-08-05T13:40:56.346Z,93535.00
2023-08-05T13:43:31.012Z,93538.06
2023-08-05T13:45:57.770Z,93533.59
2023-08-05T13:48:25.853Z,93536.59
2023-08-05T13:51:07.698Z,93529.97
2023-08-05T13:53:34.259Z,93524.69
2023-08-05T13:56:11.692Z,93529.56
2023-08-05T13:58:38.172Z,93534.22
2023-08-05T14:01:05.831Z,93532.25
2023-08-05T14:03:32.383Z,93538.06
2023-08-05T14:06:06.279Z,93531.66
2023-08-05T14:08:32.676Z,93535.97
2023-08-05T14:10:59.020Z,93530.38
2023-08-05T14:13:25.396Z,93530.25
2023-08-05T14:15:53.380Z,93525.78
2023-08-05T14:18:21.107Z,93526.34
2023-08-05T14:20:48.071Z,93525.19
2023-08-05T14:23:14.495Z,93526.91
2023-08-05T14:25:50.334Z,93520.94
2023-08-05T14:28:18.353Z,93517.69
2023-08-05T14:30:45.817Z,93523.75
2023-08-05T14:33:18.309Z,93517.31
2023-08-05T14:35:55.822Z,93527.47
2023-08-05T14:38:22.278Z,93523.00
2023-08-05T14:40:48.804Z,93521.34
2023-08-05T14:43:18.299Z,93528.94
2023-08-05T14:45:46.700Z,93521.75
2023-08-05T14:48:23.323Z,93530.44
2023-08-05T14:50:52.794Z,93516.84
2023-08-05T14:53:23.275Z,93516.84
2023-08-05T14:56:06.019Z,93512.84
2023-08-05T14:58:51.734Z,93512.03
2023-08-05T15:01:18.429Z,93514.47
2023-08-05T15:03:48.546Z,93520.69
2023-08-05T15:06:16.571Z,93520.34
2023-08-05T15:08:43.169Z,93518.63
2023-08-05T15:11:09.552Z,93511.91
2023-08-05T15:13:35.964Z,93511.91
2023-08-05T15:16:02.508Z,93512.09
2023-08-05T15:18:29.004Z,93505.69
2023-08-05T15:20:55.384Z,93496.38
2023-08-05T15:23:30.708Z,93495.06
2023-08-05T15:25:57.711Z,93497.34
2023-08-05T15:28:24.088Z,93497.44
2023-08-05T15:30:50.405Z,93491.28
2023-08-05T15:33:18.469Z,93496.38
2023-08-05T15:35:45.257Z,93488.22
2023-08-05T15:38:11.672Z,93492.97
2023-08-05T15:40:49.142Z,93494.41
2023-08-05T15:43:24.821Z,93497.00
2023-08-05T15:46:01.605Z,93500.47
2023-08-05T15:48:28.911Z,93495.84
2023-08-05T15:51:07.709Z,93486.50
2023-08-05T15:53:36.116Z,93487.38
2023-08-05T15:56:03.323Z,93485.28
2023-08-05T15:58:43.584Z,93481.25
2023-08-05T16:01:10.109Z,93475.56
2023-08-05T16:03:48.714Z,93478.78
2023-08-05T16:06:15.277Z,93476.44
2023-08-05T16:08:46.881Z,93472.97
2023-08-05T16:11:15.409Z,93463.72
2023-08-05T16:13:42.127Z,93461.00
2023-08-05T16:16:21.734Z,93456.31
2023-08-05T16:18:52.243Z,93458.91
2023-08-05T16:21:26.812Z,93463.47
2023-08-05T16:23:58.262Z,93449.13
2023-08-05T16:26:25.380Z,93443.47
2023-08-05T16:28:52.218Z,93445.38
2023-08-05T16:31:29.955Z,93447.66
2023-08-05T16:33:56.482Z,93451.78
2023-08-05T16:36:23.957Z,93448.44
2023-08-05T16:38:50.374Z,93445.84
2023-08-05T16:41:18.186Z,93448.34
2023-08-05T16:43:46.592Z,93459.03
2023-08-05T16:46:13.431Z,93447.41
2023-08-05T16:48:43.865Z,93447.97
2023-08-05T16:51:11.214Z,93440.69
2023-08-05T16:53:41.671Z,93449.84
2023-08-05T16:56:08.735Z,93444.41
2023-08-05T16:58:36.350Z,93451.97
2023-08-05T17:01:02.951Z,93434.22
2023-08-05T17:03:29.629Z,93437.91
2023-08-05T17:06:00.281Z,93441.63
2023-08-05T17:08:26.784Z,93432.22
2023-08-05T17:10:56.321Z,93429.63
2023-08-05T17:13:23.678Z,93421.47
2023-08-05T17:15:58.901Z,93423.44
2023-08-05T17:18:26.403Z,93426.19
2023-08-05T17:20:55.937Z,93421.28
2023-08-05T17:23:23.813Z,93431.84
2023-08-05T17:25:51.688Z,93427.50
2023-08-05T17:28:19.043Z,93415.81
2023-08-05T17:30:50.090Z,93424.16
2023-08-05T17:33:17.035Z,93423.19
2023-08-05T17:35:43.896Z,93416.81
2023-08-05T17:38:10.831Z,93411.63
2023-08-05T17:40:38.192Z,93407.47
2023-08-05T17:43:04.565Z,93404.91
2023-08-05T17:45:31.025Z,93408.63
2023-08-05T17:47:58.456Z,93406.38
2023-08-05T17:50:24.862Z,93407.19
2023-08-05T17:52:51.212Z,93383.88
2023-08-05T17:55:18.585Z,93399.22
2023-08-05T17:57:49.162Z,93391.09
2023-08-05T18:00:15.730Z,93392.31
2023-08-05T18:02:46.085Z,93395.97
2023-08-05T18:05:19.605Z,93392.13
2023-08-05T18:07:53.012Z,93397.00
2023-08-05T18:10:23.445Z,93402.59
2023-08-05T18:12:52.200Z,93400.09
2023-08-05T18:15:20.671Z,93400.09
2023-08-05T18:17:50.198Z,93400.66
2023-08-05T18:20:25.929Z,93396.66
2023-08-05T18:22:52.278Z,93393.19
2023-08-05T18:25:18.691Z,93395.56
2023-08-05T18:27:47.110Z,93383.19
2023-08-05T18:30:14.571Z,93393.84
2023-08-05T18:32:44.127Z,93398.47
2023-08-05T18:35:18.714Z,93393.13
2023-08-05T18:37:46.042Z,93392.56
2023-08-05T18:40:12.461Z,93388.25
2023-08-05T18:42:38.831Z,93386.69
2023-08-05T18:45:05.451Z,93389.22
2023-08-05T18:47:31.828Z,93382.84
2023-08-05T18:49:58.250Z,93380.78
2023-08-05T18:52:24.666Z,93393.47
2023-08-05T18:54:51.101Z,93393.38
2023-08-05T18:57:17.472Z,93388.59
2023-08-05T18:59:43.814Z,93382.06
2023-08-05T19:02:10.236Z,93386.41
2023-08-05T19:04:38.615Z,93386.34
2023-08-05T19:07:18.392Z,93382.19
2023-08-05T19:09:45.814Z,93389.53
2023-08-05T19:12:12.596Z,93401.34
2023-08-05T19:14:39.479Z,93396.41
2023-08-05T19:17:06.947Z,93394.78
2023-08-05T19:19:37.910Z,93398.94
2023-08-05T19:22:07.749Z,93404.22
2023-08-05T19:24:34.422Z,93394.63
2023-08-05T19:27:01.106Z,93398.28
2023-08-05T19:29:30.365Z,93387.63
2023-08-05T19:31:56.796Z,93401.97
2023-08-05T19:34:23.174Z,93396.25
2023-08-05T19:36:49.577Z,93390.97
2023-08-05T19:39:15.904Z,93399.44
2023-08-05T19:41:42.255Z,93389.22
2023-08-05T19:44:08.650Z,93395.75
2023-08-05T19:46:35.073Z,93390.00
2023-08-05T19:49:03.623Z,93387.94
2023-08-05T19:51:30.100Z,93359.22
2023-08-05T19:53:58.969Z,93380.59
2023-08-05T19:56:26.472Z,93375.97
2023-08-05T19:58:55.295Z,93373.41
2023-08-05T20:01:21.763Z,93361.78
2023-08-05T20:03:49.119Z,93356.84
2023-08-05T20:06:15.509Z,93353.38
2023-08-05T20:08:41.895Z,93341.50
2023-08-05T20:11:09.460Z,93337.34
2023-08-05T20:13:35.898Z,93344.22
2023-08-05T20:16:02.887Z,93339.03
2023-08-05T20:18:29.406Z,93339.44
2023-08-05T20:21:02.978Z,93342.78
2023-08-05T20:23:29.474Z,93330.50
2023-08-05T20:25:55.847Z,93333.06
2023-08-05T20:28:22.299Z,93329.06
2023-08-05T20:31:02.909Z,93334.81
2023-08-05T20:33:30.348Z,93330.81
2023-08-05T20:36:02.927Z,93331.88
2023-08-05T20:38:29.380Z,93330.81
2023-08-05T20:40:55.858Z,93331.09
2023-08-05T20:43:22.265Z,93325.25
2023-08-05T20:45:48.684Z,93321.66
2023-08-05T20:48:24.424Z,93330.72
2023-08-05T20:50:57.292Z,93322.19
2023-08-05T20:53:23.918Z,93329.22
2023-08-05T20:55:51.897Z,93330.16
2023-08-05T20:58:18.449Z,93331.41
2023-08-05T21:00:44.902Z,93326.94
2023-08-05T21:03:12.315Z,93323.66
2023-08-05T21:05:39.741Z,93319.94
2023-08-05T21:08:06.949Z,93321.00
2023-08-05T21:10:36.267Z,93320.91
2023-08-05T21:13:02.616Z,93323.53
2023-08-05T21:15:29.121Z,93314.00
2023-08-05T21:17:59.577Z,93315.81
2023-08-05T21:20:25.967Z,93308.88
2023-08-05T21:22:56.497Z,93301.91
2023-08-05T21:25:26.586Z,93306.66
2023-08-05T21:27:52.984Z,93298.91
2023-08-05T21:30:19.383Z,93308.38
2023-08-05T21:32:50.768Z,93306.31
2023-08-05T21:35:19.216Z,93303.78
2023-08-05T21:37:48.964Z,93308.84
2023-08-05T21:40:15.474Z,93306.31
2023-08-05T21:42:41.810Z,93306.56
2023-08-05T21:45:08.584Z,93302.09
2023-08-05T21:47:35.085Z,93299.94
2023-08-05T21:50:16.815Z,93299.56
2023-08-05T21:52:44.172Z,93309.59
2023-08-05T21:55:10.558Z,93305.19
2023-08-05T21:57:36.928Z,93314.00
2023-08-05T22:00:04.922Z,93319.00
2023-08-05T22:02:39.449Z,93322.94
2023-08-05T22:05:06.931Z,93319.56
2023-08-05T22:07:33.300Z,93327.34
2023-08-05T22:09:59.792Z,93303.63
2023-08-05T22:12:26.150Z,93305.25
2023-08-05T22:14:52.516Z,93315.97
2023-08-05T22:17:18.852Z,93319.03
2023-08-05T22:19:45.211Z,93317.31
2023-08-05T22:22:11.558Z,93335.22
2023-08-05T22:24:41.911Z,93358.31
2023-08-05T22:27:11.557Z,93356.94
2023-08-05T22:29:37.983Z,93369.16
2023-08-05T22:32:07.589Z,93364.47
2023-08-05T22:34:34.018Z,93363.91
2023-08-05T22:37:00.454Z,93366.63
2023-08-05T22:39:28.798Z,93358.19
2023-08-05T22:41:55.349Z,93368.56
2023-08-05T22:44:21.791Z,93368.56
2023-08-05T22:46:48.168Z,93364.81
2023-08-05T22:49:15.926Z,93372.56
2023-08-05T22:51:42.311Z,93371.44
2023-08-05T22:54:08.804Z,93366.28
2023-08-05T22:56:35.216Z,93358.63
2023-08-05T22:59:01.591Z,93357.06
2023-08-05T23:01:28.073Z,93359.78
2023-08-05T23:03:55.524Z,93349.28
2023-08-05T23:06:21.877Z,93353.53
2023-08-05T23:08:49.060Z,93353.28
2023-08-05T23:11:15.528Z,93361.03
2023-08-05T23:13:41.986Z,93320.28
2023-08-05T23:16:11.754Z,93369.78
2023-08-05T23:18:38.151Z,93382.66
2023-08-05T23:21:04.935Z,93372.63
2023-08-05T23:23:32.260Z,93370.66
2023-08-05T23:26:05.374Z,93372.25
2023-08-05T23:28:32.054Z,93369.50
2023-08-05T23:30:59.778Z,93363.75
2023-08-05T23:33:26.390Z,93369.34
2023-08-05T23:35:55.726Z,93361.59
2023-08-05T23:38:22.206Z,93359.75
2023-08-05T23:40:48.958Z,93347.75
2023-08-05T23:43:16.601Z,93349.47
2023-08-05T23:45:49.957Z,93348.78
2023-08-05T23:48:16.691Z,93346.50
2023-08-05T23:50:43.556Z,93334.81
2023-08-05T23:53:11.981Z,93335.25
2023-08-05T23:55:38.321Z,93339.38
2023-08-05T23:58:04.740Z,93330.13
